首页
METAR-TAF:

METAR-TAF

机场 :

何塞·马蒂国际机场

哈瓦那, 古巴

纬度: 22-59N, 经度: 082-24W, 海拔: 59米

当前天气观测

该预报发布于40分钟前的10:55 UTC
风速1节,风向多变
温度 21°C
湿度 94%
气压 1016 hPa
能見度: 9000
少量云层高于900英尺
多云层高于2000英尺

METAR: MUHA 241055Z VRB01KT 9000 FEW009 BKN020 21/20 Q1016

时间: 06:35 (11:35 UTC)

预报

该预报发布于6小时和35分钟前的05:00 UTC
预报有效从24日的 06点(UTC)到 25日的 06点(UTC)
风速7节,风向
能見度: 9000
散云层高于2500英尺
短暂存在
从 24日的 14点(UTC)到 24日的 24点(UTC)
能見度: 4000
少量云层高于1500英尺, 积雨云.
多云层高于2000英尺
阵雨

TAF: MUHA 240500Z 2406/2506 17007KT 9000 SCT025 TEMPO 2414/2424 4000 SHRA FEW015CB BKN020

超过4000个机场的气象观测和天气预报(METAR&TAF报告)。

可查询的气象台以黄色和红色小点在地图上表示。

将鼠标移到小点上方,可查看气象台名称。

然后点击查看天气观测和预报。

如需切换地图:点击带黑十字的绿色按钮放大地图;点击带横线的绿色按钮缩小地图;或者点击绿色箭头查看邻近地区的地图。


METAR-TAF: